sensor_id;sensor_type;location;lat;lon;timestamp;noise_LAeq;noise_LA_min;noise_LA_max;noise_LA01;noise_LA95
70245;Laerm;57637;49.272;8.590;2023-05-07T00:00:09;44.29;40.17;50.27;;
70245;Laerm;57637;49.272;8.590;2023-05-07T00:02:36;45.91;39.89;52.69;;
70245;Laerm;57637;49.272;8.590;2023-05-07T00:05:02;46.20;41.12;52.10;;
70245;Laerm;57637;49.272;8.590;2023-05-07T00:07:28;45.74;40.28;53.10;;
70245;Laerm;57637;49.272;8.590;2023-05-07T00:09:54;44.89;39.19;54.62;;
70245;Laerm;57637;49.272;8.590;2023-05-07T00:12:19;46.04;41.26;52.40;;
70245;Laerm;57637;49.272;8.590;2023-05-07T00:14:45;46.27;41.53;52.38;;
70245;Laerm;57637;49.272;8.590;2023-05-07T00:17:10;45.87;40.88;56.30;;
70245;Laerm;57637;49.272;8.590;2023-05-07T00:19:36;46.35;41.81;51.41;;
70245;Laerm;57637;49.272;8.590;2023-05-07T00:22:02;45.85;38.84;54.04;;
70245;Laerm;57637;49.272;8.590;2023-05-07T00:24:27;43.98;40.44;48.24;;
70245;Laerm;57637;49.272;8.590;2023-05-07T00:26:52;43.60;39.17;51.37;;
70245;Laerm;57637;49.272;8.590;2023-05-07T00:29:18;42.82;37.25;48.50;;
70245;Laerm;57637;49.272;8.590;2023-05-07T00:31:43;43.60;37.72;50.44;;
70245;Laerm;57637;49.272;8.590;2023-05-07T00:34:09;43.07;37.99;49.66;;
70245;Laerm;57637;49.272;8.590;2023-05-07T00:36:34;43.67;36.29;50.52;;
70245;Laerm;57637;49.272;8.590;2023-05-07T00:39:00;43.11;37.31;53.21;;
70245;Laerm;57637;49.272;8.590;2023-05-07T00:41:27;44.60;37.66;54.22;;
70245;Laerm;57637;49.272;8.590;2023-05-07T00:43:52;43.77;39.54;50.17;;
70245;Laerm;57637;49.272;8.590;2023-05-07T00:46:20;43.59;39.04;49.68;;
70245;Laerm;57637;49.272;8.590;2023-05-07T00:48:46;43.56;39.02;51.06;;
70245;Laerm;57637;49.272;8.590;2023-05-07T00:51:12;43.24;37.87;54.16;;
70245;Laerm;57637;49.272;8.590;2023-05-07T00:53:38;43.12;35.58;55.38;;
70245;Laerm;57637;49.272;8.590;2023-05-07T00:56:04;43.22;38.91;47.84;;
70245;Laerm;57637;49.272;8.590;2023-05-07T00:58:32;42.94;38.50;49.35;;
70245;Laerm;57637;49.272;8.590;2023-05-07T01:00:57;43.34;39.20;48.07;;
70245;Laerm;57637;49.272;8.590;2023-05-07T01:03:23;44.51;39.51;50.81;;
70245;Laerm;57637;49.272;8.590;2023-05-07T01:05:50;44.94;39.92;51.52;;
70245;Laerm;57637;49.272;8.590;2023-05-07T01:08:16;43.48;38.15;51.49;;
70245;Laerm;57637;49.272;8.590;2023-05-07T01:10:43;45.56;40.77;53.02;;
70245;Laerm;57637;49.272;8.590;2023-05-07T01:13:10;44.32;39.73;51.88;;
70245;Laerm;57637;49.272;8.590;2023-05-07T01:15:37;43.75;37.55;51.81;;
70245;Laerm;57637;49.272;8.590;2023-05-07T01:18:03;44.73;39.27;50.32;;
70245;Laerm;57637;49.272;8.590;2023-05-07T01:20:29;42.40;37.14;48.07;;
70245;Laerm;57637;49.272;8.590;2023-05-07T01:22:57;42.77;36.21;52.28;;
70245;Laerm;57637;49.272;8.590;2023-05-07T01:25:23;43.04;38.23;51.10;;
70245;Laerm;57637;49.272;8.590;2023-05-07T01:27:48;44.53;39.21;52.54;;
70245;Laerm;57637;49.272;8.590;2023-05-07T01:30:14;43.28;38.19;51.03;;
70245;Laerm;57637;49.272;8.590;2023-05-07T01:32:43;42.44;35.76;51.94;;
70245;Laerm;57637;49.272;8.590;2023-05-07T01:35:16;43.60;36.40;49.82;;
70245;Laerm;57637;49.272;8.590;2023-05-07T01:37:44;43.57;34.94;54.11;;
70245;Laerm;57637;49.272;8.590;2023-05-07T01:40:10;43.08;35.55;50.25;;
70245;Laerm;57637;49.272;8.590;2023-05-07T01:42:36;43.78;36.05;52.83;;
70245;Laerm;57637;49.272;8.590;2023-05-07T01:45:01;41.42;35.06;48.94;;
70245;Laerm;57637;49.272;8.590;2023-05-07T01:47:29;43.03;36.99;50.68;;
70245;Laerm;57637;49.272;8.590;2023-05-07T01:49:55;43.64;37.80;53.60;;
70245;Laerm;57637;49.272;8.590;2023-05-07T01:52:20;43.53;37.83;51.04;;
70245;Laerm;57637;49.272;8.590;2023-05-07T01:54:46;41.57;36.81;48.65;;
70245;Laerm;57637;49.272;8.590;2023-05-07T01:57:11;42.75;37.41;52.12;;
70245;Laerm;57637;49.272;8.590;2023-05-07T01:59:36;43.30;37.43;51.88;;
70245;Laerm;57637;49.272;8.590;2023-05-07T02:02:02;43.70;37.21;59.08;;
70245;Laerm;57637;49.272;8.590;2023-05-07T02:04:27;45.60;39.49;57.23;;
70245;Laerm;57637;49.272;8.590;2023-05-07T02:06:52;46.77;41.76;62.22;;
70245;Laerm;57637;49.272;8.590;2023-05-07T02:09:18;45.44;39.55;57.35;;
70245;Laerm;57637;49.272;8.590;2023-05-07T02:11:44;45.52;38.99;59.98;;
70245;Laerm;57637;49.272;8.590;2023-05-07T02:14:09;42.36;36.77;53.67;;
70245;Laerm;57637;49.272;8.590;2023-05-07T02:16:35;42.72;38.29;50.28;;
70245;Laerm;57637;49.272;8.590;2023-05-07T02:19:00;43.65;38.79;56.55;;
70245;Laerm;57637;49.272;8.590;2023-05-07T02:21:25;43.46;38.25;56.67;;
70245;Laerm;57637;49.272;8.590;2023-05-07T02:23:51;43.30;39.11;53.66;;
70245;Laerm;57637;49.272;8.590;2023-05-07T02:26:16;45.43;38.36;64.23;;
70245;Laerm;57637;49.272;8.590;2023-05-07T02:28:41;48.26;38.16;67.25;;
70245;Laerm;57637;49.272;8.590;2023-05-07T02:31:07;47.58;39.70;60.34;;
70245;Laerm;57637;49.272;8.590;2023-05-07T02:33:32;46.10;37.05;68.27;;
70245;Laerm;57637;49.272;8.590;2023-05-07T02:36:09;42.15;36.80;58.90;;
70245;Laerm;57637;49.272;8.590;2023-05-07T02:38:35;43.67;38.92;57.67;;
70245;Laerm;57637;49.272;8.590;2023-05-07T02:41:00;43.38;38.70;56.95;;
70245;Laerm;57637;49.272;8.590;2023-05-07T02:43:26;42.03;37.27;58.69;;
70245;Laerm;57637;49.272;8.590;2023-05-07T02:46:05;42.68;36.71;60.31;;
70245;Laerm;57637;49.272;8.590;2023-05-07T02:48:30;43.93;38.14;62.36;;
70245;Laerm;57637;49.272;8.590;2023-05-07T02:50:56;42.96;37.49;59.44;;
70245;Laerm;57637;49.272;8.590;2023-05-07T02:53:21;42.55;37.84;59.32;;
70245;Laerm;57637;49.272;8.590;2023-05-07T02:55:47;44.04;36.36;64.68;;
70245;Laerm;57637;49.272;8.590;2023-05-07T02:58:12;47.99;37.97;62.99;;
70245;Laerm;57637;49.272;8.590;2023-05-07T03:00:37;50.40;38.82;65.04;;
70245;Laerm;57637;49.272;8.590;2023-05-07T03:03:03;49.51;39.02;64.83;;
70245;Laerm;57637;49.272;8.590;2023-05-07T03:05:28;49.86;40.50;64.41;;
70245;Laerm;57637;49.272;8.590;2023-05-07T03:07:54;49.00;38.73;64.51;;
70245;Laerm;57637;49.272;8.590;2023-05-07T03:10:19;49.84;39.23;64.34;;
70245;Laerm;57637;49.272;8.590;2023-05-07T03:12:44;48.70;38.60;62.91;;
70245;Laerm;57637;49.272;8.590;2023-05-07T03:15:10;50.18;37.80;67.72;;
70245;Laerm;57637;49.272;8.590;2023-05-07T03:17:38;48.37;38.85;62.15;;
70245;Laerm;57637;49.272;8.590;2023-05-07T03:20:03;45.70;40.26;55.76;;
70245;Laerm;57637;49.272;8.590;2023-05-07T03:22:29;45.11;39.23;55.22;;
70245;Laerm;57637;49.272;8.590;2023-05-07T03:24:54;44.99;40.07;51.85;;
70245;Laerm;57637;49.272;8.590;2023-05-07T03:27:20;45.39;40.35;52.50;;
70245;Laerm;57637;49.272;8.590;2023-05-07T03:29:45;48.43;41.60;61.53;;
70245;Laerm;57637;49.272;8.590;2023-05-07T03:32:10;48.80;41.64;63.18;;
70245;Laerm;57637;49.272;8.590;2023-05-07T03:34:36;50.82;40.42;66.08;;
70245;Laerm;57637;49.272;8.590;2023-05-07T03:37:01;55.10;39.68;68.81;;
70245;Laerm;57637;49.272;8.590;2023-05-07T03:39:26;52.56;38.18;67.36;;
70245;Laerm;57637;49.272;8.590;2023-05-07T03:41:52;49.88;40.85;73.68;;
70245;Laerm;57637;49.272;8.590;2023-05-07T03:44:17;51.83;40.37;66.67;;
70245;Laerm;57637;49.272;8.590;2023-05-07T03:46:43;49.77;40.22;64.67;;
70245;Laerm;57637;49.272;8.590;2023-05-07T03:49:08;48.66;40.91;63.09;;
70245;Laerm;57637;49.272;8.590;2023-05-07T03:51:34;48.45;40.51;65.52;;
70245;Laerm;57637;49.272;8.590;2023-05-07T03:54:01;48.17;39.69;66.64;;
70245;Laerm;57637;49.272;8.590;2023-05-07T03:56:26;47.24;40.83;61.04;;
70245;Laerm;57637;49.272;8.590;2023-05-07T03:58:53;47.79;40.61;60.08;;
70245;Laerm;57637;49.272;8.590;2023-05-07T04:01:18;47.04;40.65;58.37;;
70245;Laerm;57637;49.272;8.590;2023-05-07T04:03:43;48.42;39.95;64.32;;
70245;Laerm;57637;49.272;8.590;2023-05-07T04:06:09;44.69;38.90;56.67;;
70245;Laerm;57637;49.272;8.590;2023-05-07T04:08:34;45.28;40.16;59.02;;
70245;Laerm;57637;49.272;8.590;2023-05-07T04:11:00;45.18;39.93;59.29;;
70245;Laerm;57637;49.272;8.590;2023-05-07T04:13:25;44.64;40.05;51.29;;
70245;Laerm;57637;49.272;8.590;2023-05-07T04:15:51;44.96;39.61;54.44;;
70245;Laerm;57637;49.272;8.590;2023-05-07T04:18:17;45.40;40.13;56.37;;
70245;Laerm;57637;49.272;8.590;2023-05-07T04:20:42;45.02;39.25;57.33;;
70245;Laerm;57637;49.272;8.590;2023-05-07T04:23:08;45.17;39.23;59.65;;
70245;Laerm;57637;49.272;8.590;2023-05-07T04:25:34;43.78;38.30;54.63;;
70245;Laerm;57637;49.272;8.590;2023-05-07T04:27:59;45.74;39.50;54.47;;
70245;Laerm;57637;49.272;8.590;2023-05-07T04:30:25;45.54;41.18;61.54;;
70245;Laerm;57637;49.272;8.590;2023-05-07T04:32:50;46.49;40.34;58.14;;
70245;Laerm;57637;49.272;8.590;2023-05-07T04:35:16;45.38;39.79;58.83;;
70245;Laerm;57637;49.272;8.590;2023-05-07T04:37:41;45.58;40.69;52.34;;
70245;Laerm;57637;49.272;8.590;2023-05-07T04:40:07;45.79;42.04;57.40;;
70245;Laerm;57637;49.272;8.590;2023-05-07T04:42:32;45.51;40.92;53.88;;
70245;Laerm;57637;49.272;8.590;2023-05-07T04:44:58;45.10;41.39;50.97;;
70245;Laerm;57637;49.272;8.590;2023-05-07T04:47:23;44.40;40.32;51.49;;
70245;Laerm;57637;49.272;8.590;2023-05-07T04:49:49;44.76;40.23;56.43;;
70245;Laerm;57637;49.272;8.590;2023-05-07T04:52:14;45.78;41.02;60.55;;
70245;Laerm;57637;49.272;8.590;2023-05-07T04:54:40;46.31;41.69;54.18;;
70245;Laerm;57637;49.272;8.590;2023-05-07T04:57:06;46.93;41.70;55.24;;
70245;Laerm;57637;49.272;8.590;2023-05-07T04:59:32;46.71;42.17;56.55;;
70245;Laerm;57637;49.272;8.590;2023-05-07T05:01:57;46.50;41.74;58.92;;
70245;Laerm;57637;49.272;8.590;2023-05-07T05:04:23;46.37;41.94;64.40;;
70245;Laerm;57637;49.272;8.590;2023-05-07T05:06:48;47.66;42.21;56.80;;
70245;Laerm;57637;49.272;8.590;2023-05-07T05:09:13;46.84;42.00;58.56;;
70245;Laerm;57637;49.272;8.590;2023-05-07T05:11:40;47.37;43.80;55.33;;
70245;Laerm;57637;49.272;8.590;2023-05-07T05:14:05;48.57;43.78;61.99;;
70245;Laerm;57637;49.272;8.590;2023-05-07T05:16:30;47.53;43.60;56.60;;
70245;Laerm;57637;49.272;8.590;2023-05-07T05:18:56;47.16;42.34;54.86;;
70245;Laerm;57637;49.272;8.590;2023-05-07T05:21:21;46.89;42.76;53.19;;
70245;Laerm;57637;49.272;8.590;2023-05-07T05:23:46;46.66;42.43;56.28;;
70245;Laerm;57637;49.272;8.590;2023-05-07T05:26:12;47.19;42.40;56.72;;
70245;Laerm;57637;49.272;8.590;2023-05-07T05:28:38;46.73;42.67;54.47;;
70245;Laerm;57637;49.272;8.590;2023-05-07T05:31:04;46.83;42.63;55.53;;
70245;Laerm;57637;49.272;8.590;2023-05-07T05:33:30;47.11;42.42;58.41;;
70245;Laerm;57637;49.272;8.590;2023-05-07T05:35:55;47.08;43.38;52.77;;
70245;Laerm;57637;49.272;8.590;2023-05-07T05:38:21;46.55;42.17;56.95;;
70245;Laerm;57637;49.272;8.590;2023-05-07T05:40:46;47.53;43.49;59.13;;
70245;Laerm;57637;49.272;8.590;2023-05-07T05:43:12;47.05;43.95;57.07;;
70245;Laerm;57637;49.272;8.590;2023-05-07T05:45:37;46.79;42.56;56.81;;
70245;Laerm;57637;49.272;8.590;2023-05-07T05:48:03;46.74;42.58;57.05;;
70245;Laerm;57637;49.272;8.590;2023-05-07T05:50:28;48.94;42.85;71.24;;
70245;Laerm;57637;49.272;8.590;2023-05-07T05:52:53;48.05;42.75;64.67;;
70245;Laerm;57637;49.272;8.590;2023-05-07T05:55:19;47.71;43.23;64.93;;
70245;Laerm;57637;49.272;8.590;2023-05-07T05:57:45;49.06;43.15;63.51;;
70245;Laerm;57637;49.272;8.590;2023-05-07T06:00:11;51.73;42.49;74.99;;
70245;Laerm;57637;49.272;8.590;2023-05-07T06:02:36;48.86;42.26;63.80;;
70245;Laerm;57637;49.272;8.590;2023-05-07T06:05:03;45.23;41.70;58.09;;
70245;Laerm;57637;49.272;8.590;2023-05-07T06:07:29;45.79;42.46;58.62;;
70245;Laerm;57637;49.272;8.590;2023-05-07T06:09:54;45.55;41.85;53.46;;
70245;Laerm;57637;49.272;8.590;2023-05-07T06:12:20;45.40;41.77;54.26;;
70245;Laerm;57637;49.272;8.590;2023-05-07T06:14:46;45.68;41.18;58.79;;
70245;Laerm;57637;49.272;8.590;2023-05-07T06:17:11;47.12;41.89;61.91;;
70245;Laerm;57637;49.272;8.590;2023-05-07T06:19:37;46.39;41.81;59.78;;
70245;Laerm;57637;49.272;8.590;2023-05-07T06:22:02;45.07;40.19;57.29;;
70245;Laerm;57637;49.272;8.590;2023-05-07T06:24:28;44.88;40.62;57.70;;
70245;Laerm;57637;49.272;8.590;2023-05-07T06:26:53;44.42;40.38;55.02;;
70245;Laerm;57637;49.272;8.590;2023-05-07T06:29:19;44.76;39.85;54.41;;
70245;Laerm;57637;49.272;8.590;2023-05-07T06:31:44;46.69;40.43;63.41;;
70245;Laerm;57637;49.272;8.590;2023-05-07T06:34:10;43.79;40.34;57.73;;
70245;Laerm;57637;49.272;8.590;2023-05-07T06:36:39;44.08;39.62;57.53;;
70245;Laerm;57637;49.272;8.590;2023-05-07T06:39:04;44.46;40.12;54.72;;
70245;Laerm;57637;49.272;8.590;2023-05-07T06:41:30;44.87;40.10;56.77;;
70245;Laerm;57637;49.272;8.590;2023-05-07T06:43:55;43.58;38.94;61.90;;
70245;Laerm;57637;49.272;8.590;2023-05-07T06:46:20;43.31;39.51;54.03;;
70245;Laerm;57637;49.272;8.590;2023-05-07T06:48:46;43.56;39.66;53.58;;
70245;Laerm;57637;49.272;8.590;2023-05-07T06:51:11;43.83;39.81;55.40;;
70245;Laerm;57637;49.272;8.590;2023-05-07T06:53:37;44.78;40.38;54.27;;
70245;Laerm;57637;49.272;8.590;2023-05-07T06:56:02;43.63;39.32;53.30;;
70245;Laerm;57637;49.272;8.590;2023-05-07T06:58:27;43.54;39.69;56.34;;
70245;Laerm;57637;49.272;8.590;2023-05-07T07:00:53;43.94;39.05;58.74;;
70245;Laerm;57637;49.272;8.590;2023-05-07T07:03:18;45.13;39.11;66.42;;
70245;Laerm;57637;49.272;8.590;2023-05-07T07:05:43;46.35;39.51;68.65;;
70245;Laerm;57637;49.272;8.590;2023-05-07T07:08:09;45.12;40.43;58.05;;
70245;Laerm;57637;49.272;8.590;2023-05-07T07:10:35;46.18;40.08;57.79;;
70245;Laerm;57637;49.272;8.590;2023-05-07T07:13:00;48.71;38.67;65.29;;
70245;Laerm;57637;49.272;8.590;2023-05-07T07:15:26;50.24;39.37;66.90;;
70245;Laerm;57637;49.272;8.590;2023-05-07T07:17:51;43.04;38.43;57.12;;
70245;Laerm;57637;49.272;8.590;2023-05-07T07:20:17;44.09;38.89;60.95;;
70245;Laerm;57637;49.272;8.590;2023-05-07T07:22:42;48.47;38.88;68.17;;
70245;Laerm;57637;49.272;8.590;2023-05-07T07:25:08;48.79;40.01;61.31;;
70245;Laerm;57637;49.272;8.590;2023-05-07T07:27:33;45.20;38.22;62.79;;
70245;Laerm;57637;49.272;8.590;2023-05-07T07:29:59;43.21;38.11;56.08;;
70245;Laerm;57637;49.272;8.590;2023-05-07T07:32:24;42.77;38.22;54.98;;
70245;Laerm;57637;49.272;8.590;2023-05-07T07:34:50;46.58;37.25;56.95;;
70245;Laerm;57637;49.272;8.590;2023-05-07T07:37:16;44.13;37.13;61.03;;
70245;Laerm;57637;49.272;8.590;2023-05-07T07:39:41;44.09;38.17;59.67;;
70245;Laerm;57637;49.272;8.590;2023-05-07T07:42:06;47.29;37.69;70.85;;
70245;Laerm;57637;49.272;8.590;2023-05-07T07:44:32;43.69;36.77;58.15;;
70245;Laerm;57637;49.272;8.590;2023-05-07T07:46:57;41.67;36.91;57.78;;
70245;Laerm;57637;49.272;8.590;2023-05-07T07:49:23;41.90;35.96;64.75;;
70245;Laerm;57637;49.272;8.590;2023-05-07T07:51:48;45.49;37.27;64.19;;
70245;Laerm;57637;49.272;8.590;2023-05-07T07:54:13;46.32;37.37;65.02;;
70245;Laerm;57637;49.272;8.590;2023-05-07T07:56:39;45.60;37.92;63.69;;
70245;Laerm;57637;49.272;8.590;2023-05-07T07:59:04;46.04;38.00;56.76;;
70245;Laerm;57637;49.272;8.590;2023-05-07T08:01:30;43.52;37.57;63.41;;
70245;Laerm;57637;49.272;8.590;2023-05-07T08:03:56;46.23;38.02;58.37;;
70245;Laerm;57637;49.272;8.590;2023-05-07T08:06:24;49.94;38.82;66.49;;
70245;Laerm;57637;49.272;8.590;2023-05-07T08:08:49;49.52;36.13;79.28;;
70245;Laerm;57637;49.272;8.590;2023-05-07T08:11:14;45.02;36.43;64.98;;
70245;Laerm;57637;49.272;8.590;2023-05-07T08:13:40;44.92;38.29;63.00;;
70245;Laerm;57637;49.272;8.590;2023-05-07T08:16:05;44.68;38.86;54.05;;
70245;Laerm;57637;49.272;8.590;2023-05-07T08:18:31;46.46;38.54;67.69;;
70245;Laerm;57637;49.272;8.590;2023-05-07T08:20:56;45.44;39.15;62.35;;
70245;Laerm;57637;49.272;8.590;2023-05-07T08:23:22;46.32;38.35;61.08;;
70245;Laerm;57637;49.272;8.590;2023-05-07T08:25:49;46.27;37.63;68.32;;
70245;Laerm;57637;49.272;8.590;2023-05-07T08:28:14;48.75;37.66;68.44;;
70245;Laerm;57637;49.272;8.590;2023-05-07T08:30:40;46.17;36.90;65.46;;
70245;Laerm;57637;49.272;8.590;2023-05-07T08:33:06;46.49;37.81;66.38;;
70245;Laerm;57637;49.272;8.590;2023-05-07T08:35:31;44.89;38.30;63.20;;
70245;Laerm;57637;49.272;8.590;2023-05-07T08:37:56;42.58;36.86;58.29;;
70245;Laerm;57637;49.272;8.590;2023-05-07T08:40:24;42.76;36.23;63.73;;
70245;Laerm;57637;49.272;8.590;2023-05-07T08:42:51;46.31;38.59;63.78;;
70245;Laerm;57637;49.272;8.590;2023-05-07T08:45:17;43.64;36.70;63.18;;
70245;Laerm;57637;49.272;8.590;2023-05-07T08:47:47;43.86;36.84;65.97;;
70245;Laerm;57637;49.272;8.590;2023-05-07T08:50:15;43.45;37.27;64.10;;
70245;Laerm;57637;49.272;8.590;2023-05-07T08:52:41;45.66;37.57;65.82;;
70245;Laerm;57637;49.272;8.590;2023-05-07T08:55:08;43.96;37.15;58.58;;
70245;Laerm;57637;49.272;8.590;2023-05-07T08:57:33;42.36;36.59;55.07;;
70245;Laerm;57637;49.272;8.590;2023-05-07T08:59:59;47.46;36.96;64.19;;
70245;Laerm;57637;49.272;8.590;2023-05-07T09:02:24;45.05;36.87;70.55;;
70245;Laerm;57637;49.272;8.590;2023-05-07T09:04:50;43.18;37.49;60.08;;
70245;Laerm;57637;49.272;8.590;2023-05-07T09:07:16;46.03;39.00;64.98;;
70245;Laerm;57637;49.272;8.590;2023-05-07T09:09:44;42.28;37.76;52.02;;
70245;Laerm;57637;49.272;8.590;2023-05-07T09:12:09;42.74;37.17;60.51;;
70245;Laerm;57637;49.272;8.590;2023-05-07T09:14:35;44.19;38.32;61.55;;
70245;Laerm;57637;49.272;8.590;2023-05-07T09:17:00;43.14;38.09;56.45;;
70245;Laerm;57637;49.272;8.590;2023-05-07T09:19:26;41.38;36.69;66.00;;
70245;Laerm;57637;49.272;8.590;2023-05-07T09:22:02;43.67;37.27;58.01;;
70245;Laerm;57637;49.272;8.590;2023-05-07T09:24:29;44.44;38.34;60.73;;
70245;Laerm;57637;49.272;8.590;2023-05-07T09:26:59;42.60;36.74;52.07;;
70245;Laerm;57637;49.272;8.590;2023-05-07T09:29:25;43.29;36.40;63.72;;
70245;Laerm;57637;49.272;8.590;2023-05-07T09:31:51;43.80;37.25;64.03;;
70245;Laerm;57637;49.272;8.590;2023-05-07T09:34:16;45.81;36.65;58.53;;
70245;Laerm;57637;49.272;8.590;2023-05-07T09:36:42;44.59;38.46;57.45;;
70245;Laerm;57637;49.272;8.590;2023-05-07T09:39:07;42.23;36.31;52.00;;
70245;Laerm;57637;49.272;8.590;2023-05-07T09:41:33;45.37;39.25;61.52;;
70245;Laerm;57637;49.272;8.590;2023-05-07T09:44:08;42.58;37.70;55.94;;
70245;Laerm;57637;49.272;8.590;2023-05-07T09:46:36;47.40;36.96;62.84;;
70245;Laerm;57637;49.272;8.590;2023-05-07T09:49:02;44.42;36.92;58.19;;
70245;Laerm;57637;49.272;8.590;2023-05-07T09:51:39;49.77;37.99;60.03;;
70245;Laerm;57637;49.272;8.590;2023-05-07T09:54:06;47.18;36.45;61.76;;
70245;Laerm;57637;49.272;8.590;2023-05-07T09:56:32;43.32;36.55;58.79;;
70245;Laerm;57637;49.272;8.590;2023-05-07T09:59:00;42.20;37.17;59.80;;
70245;Laerm;57637;49.272;8.590;2023-05-07T10:01:26;42.89;38.22;57.32;;
70245;Laerm;57637;49.272;8.590;2023-05-07T10:03:52;44.20;37.48;62.52;;
70245;Laerm;57637;49.272;8.590;2023-05-07T10:06:20;47.18;36.90;67.27;;
70245;Laerm;57637;49.272;8.590;2023-05-07T10:08:45;43.03;38.47;59.28;;
70245;Laerm;57637;49.272;8.590;2023-05-07T10:11:12;47.12;38.65;70.69;;
70245;Laerm;57637;49.272;8.590;2023-05-07T10:13:37;55.02;37.08;80.60;;
70245;Laerm;57637;49.272;8.590;2023-05-07T10:16:04;46.01;38.03;66.18;;
70245;Laerm;57637;49.272;8.590;2023-05-07T10:18:31;43.90;38.33;58.91;;
70245;Laerm;57637;49.272;8.590;2023-05-07T10:21:10;44.19;36.54;58.97;;
70245;Laerm;57637;49.272;8.590;2023-05-07T10:23:36;47.21;36.50;69.60;;
70245;Laerm;57637;49.272;8.590;2023-05-07T10:26:23;51.25;37.57;73.28;;
70245;Laerm;57637;49.272;8.590;2023-05-07T10:28:57;49.25;36.79;72.74;;
70245;Laerm;57637;49.272;8.590;2023-05-07T10:32:33;41.49;36.32;56.97;;
70245;Laerm;57637;49.272;8.590;2023-05-07T10:34:34;41.04;35.95;53.30;;
70245;Laerm;57637;49.272;8.590;2023-05-07T10:37:00;43.07;36.94;54.74;;
70245;Laerm;57637;49.272;8.590;2023-05-07T10:39:26;42.81;36.52;52.57;;
70245;Laerm;57637;49.272;8.590;2023-05-07T10:41:52;42.40;36.12;63.24;;
70245;Laerm;57637;49.272;8.590;2023-05-07T10:44:28;43.75;37.71;57.95;;
70245;Laerm;57637;49.272;8.590;2023-05-07T10:47:07;43.69;37.53;61.24;;
70245;Laerm;57637;49.272;8.590;2023-05-07T10:49:35;47.00;37.61;72.03;;
70245;Laerm;57637;49.272;8.590;2023-05-07T10:52:15;49.88;36.96;67.27;;
70245;Laerm;57637;49.272;8.590;2023-05-07T10:54:45;48.49;36.87;72.76;;
70245;Laerm;57637;49.272;8.590;2023-05-07T10:57:33;52.38;38.85;68.37;;
70245;Laerm;57637;49.272;8.590;2023-05-07T11:00:01;53.22;36.84;70.44;;
70245;Laerm;57637;49.272;8.590;2023-05-07T11:05:29;49.51;37.74;61.95;;
70245;Laerm;57637;49.272;8.590;2023-05-07T11:07:59;55.97;38.00;85.07;;
70245;Laerm;57637;49.272;8.590;2023-05-07T11:10:48;45.61;35.80;61.70;;
70245;Laerm;57637;49.272;8.590;2023-05-07T11:13:15;43.82;37.80;55.30;;
70245;Laerm;57637;49.272;8.590;2023-05-07T11:15:50;43.60;38.81;54.14;;
70245;Laerm;57637;49.272;8.590;2023-05-07T11:18:17;41.64;37.42;50.52;;
70245;Laerm;57637;49.272;8.590;2023-05-07T11:20:56;43.24;37.51;52.45;;
70245;Laerm;57637;49.272;8.590;2023-05-07T11:26:03;48.74;38.45;69.40;;
70245;Laerm;57637;49.272;8.590;2023-05-07T11:28:37;44.04;38.04;54.96;;
70245;Laerm;57637;49.272;8.590;2023-05-07T11:31:03;43.73;38.46;56.20;;
70245;Laerm;57637;49.272;8.590;2023-05-07T11:33:30;45.83;38.40;66.63;;
70245;Laerm;57637;49.272;8.590;2023-05-07T11:35:56;45.33;38.59;66.22;;
70245;Laerm;57637;49.272;8.590;2023-05-07T11:38:22;41.76;36.07;60.69;;
70245;Laerm;57637;49.272;8.590;2023-05-07T11:40:52;43.39;37.22;68.05;;
70245;Laerm;57637;49.272;8.590;2023-05-07T11:43:18;44.94;38.05;60.65;;
70245;Laerm;57637;49.272;8.590;2023-05-07T11:45:47;44.97;37.72;65.28;;
70245;Laerm;57637;49.272;8.590;2023-05-07T11:48:14;52.05;38.05;75.04;;
70245;Laerm;57637;49.272;8.590;2023-05-07T11:50:59;54.04;39.23;71.87;;
70245;Laerm;57637;49.272;8.590;2023-05-07T11:53:26;47.49;37.67;71.08;;
70245;Laerm;57637;49.272;8.590;2023-05-07T11:55:55;45.98;38.13;66.91;;
70245;Laerm;57637;49.272;8.590;2023-05-07T11:58:23;48.86;39.22;61.38;;
70245;Laerm;57637;49.272;8.590;2023-05-07T12:00:53;47.24;38.64;61.75;;
70245;Laerm;57637;49.272;8.590;2023-05-07T12:03:19;43.90;38.04;61.47;;
70245;Laerm;57637;49.272;8.590;2023-05-07T12:05:46;42.41;37.73;56.02;;
70245;Laerm;57637;49.272;8.590;2023-05-07T12:08:19;44.21;38.35;64.34;;
70245;Laerm;57637;49.272;8.590;2023-05-07T12:10:47;46.62;37.34;70.29;;
70245;Laerm;57637;49.272;8.590;2023-05-07T12:13:15;47.07;37.99;63.16;;
70245;Laerm;57637;49.272;8.590;2023-05-07T12:15:42;46.59;39.60;62.52;;
70245;Laerm;57637;49.272;8.590;2023-05-07T12:18:08;45.37;38.18;59.93;;
70245;Laerm;57637;49.272;8.590;2023-05-07T12:20:35;44.84;38.39;66.83;;
70245;Laerm;57637;49.272;8.590;2023-05-07T12:23:01;46.52;37.99;70.39;;
70245;Laerm;57637;49.272;8.590;2023-05-07T12:25:29;45.33;37.46;62.72;;
70245;Laerm;57637;49.272;8.590;2023-05-07T12:27:54;48.02;38.49;65.72;;
70245;Laerm;57637;49.272;8.590;2023-05-07T12:30:20;52.17;39.31;62.86;;
70245;Laerm;57637;49.272;8.590;2023-05-07T12:32:45;45.60;38.26;60.61;;
70245;Laerm;57637;49.272;8.590;2023-05-07T12:35:11;47.88;38.29;65.84;;
70245;Laerm;57637;49.272;8.590;2023-05-07T12:37:36;49.51;39.25;69.08;;
70245;Laerm;57637;49.272;8.590;2023-05-07T12:40:07;46.82;40.14;61.93;;
70245;Laerm;57637;49.272;8.590;2023-05-07T12:42:35;46.23;39.58;61.02;;
70245;Laerm;57637;49.272;8.590;2023-05-07T12:45:13;44.00;38.10;63.45;;
70245;Laerm;57637;49.272;8.590;2023-05-07T12:47:44;44.37;38.43;57.71;;
70245;Laerm;57637;49.272;8.590;2023-05-07T12:50:10;46.11;40.46;62.06;;
70245;Laerm;57637;49.272;8.590;2023-05-07T12:52:36;44.21;39.06;57.06;;
70245;Laerm;57637;49.272;8.590;2023-05-07T12:55:06;44.86;37.96;57.72;;
70245;Laerm;57637;49.272;8.590;2023-05-07T12:57:39;51.71;39.45;67.84;;
70245;Laerm;57637;49.272;8.590;2023-05-07T13:00:06;54.20;39.00;73.01;;
70245;Laerm;57637;49.272;8.590;2023-05-07T13:02:42;50.44;39.71;70.05;;
70245;Laerm;57637;49.272;8.590;2023-05-07T13:05:09;45.84;38.60;65.09;;
70245;Laerm;57637;49.272;8.590;2023-05-07T13:07:35;44.85;39.19;66.88;;
70245;Laerm;57637;49.272;8.590;2023-05-07T13:10:02;44.62;39.11;58.97;;
70245;Laerm;57637;49.272;8.590;2023-05-07T13:12:28;43.33;37.99;57.59;;
70245;Laerm;57637;49.272;8.590;2023-05-07T13:14:53;45.22;38.68;63.03;;
70245;Laerm;57637;49.272;8.590;2023-05-07T13:17:18;43.81;39.37;57.53;;
70245;Laerm;57637;49.272;8.590;2023-05-07T13:19:44;43.96;37.82;60.63;;
70245;Laerm;57637;49.272;8.590;2023-05-07T13:22:09;42.28;37.25;54.64;;
70245;Laerm;57637;49.272;8.590;2023-05-07T13:24:36;46.07;38.67;60.04;;
70245;Laerm;57637;49.272;8.590;2023-05-07T13:27:01;46.19;37.79;58.23;;
70245;Laerm;57637;49.272;8.590;2023-05-07T13:29:26;43.56;38.26;55.01;;
70245;Laerm;57637;49.272;8.590;2023-05-07T13:31:56;43.83;38.81;56.42;;
70245;Laerm;57637;49.272;8.590;2023-05-07T13:34:21;43.57;38.58;60.40;;
70245;Laerm;57637;49.272;8.590;2023-05-07T13:36:47;44.63;38.85;64.36;;
70245;Laerm;57637;49.272;8.590;2023-05-07T13:39:12;50.91;39.48;71.83;;
70245;Laerm;57637;49.272;8.590;2023-05-07T13:41:38;48.97;38.64;68.03;;
70245;Laerm;57637;49.272;8.590;2023-05-07T13:44:03;51.94;40.10;72.09;;
70245;Laerm;57637;49.272;8.590;2023-05-07T13:46:29;52.70;39.84;70.68;;